Time;durP1;ratioP1;P1;durP2;ratioP2;P2;SDS_P1;SDS_P2;PMS_P1;PMS_P2;Temp;Humidity;BMP_temperature;BMP_pressure;BME280_temperature;BME280_humidity;BME280_pressure;Samples;Min_cycle;Max_cycle;Signal;HPM_P1;HPM_P2
2021/01/03 00:01:00;;;;;;;26.50;15.17;;;0.70;75.70;;;;;;5085908;28;20445;-79
2021/01/03 00:03:26;;;;;;;20.50;14.17;;;0.80;76.10;;;;;;5081735;28;20456;-79
2021/01/03 00:05:57;;;;;;;21.00;14.67;;;0.70;76.80;;;;;;5084037;28;20499;-79
2021/01/03 00:08:23;;;;;;;22.57;14.27;;;0.60;76.60;;;;;;5087838;28;20468;-79
2021/01/03 00:10:51;;;;;;;24.07;13.90;;;0.70;77.70;;;;;;5086530;28;20452;-79
2021/01/03 00:13:18;;;;;;;22.23;15.33;;;0.60;78.10;;;;;;5078384;28;20864;-79
2021/01/03 00:15:44;;;;;;;24.40;15.03;;;0.70;80.30;;;;;;5078548;28;20513;-80
2021/01/03 00:18:11;;;;;;;23.57;14.23;;;0.70;80.90;;;;;;5079896;28;20467;-80
2021/01/03 00:20:38;;;;;;;24.87;14.77;;;0.70;81.80;;;;;;5076344;28;20450;-79
2021/01/03 00:23:05;;;;;;;20.37;14.90;;;0.50;83.30;;;;;;5085304;28;20462;-79
2021/01/03 00:25:33;;;;;;;20.60;13.70;;;0.50;84.90;;;;;;5088974;28;20444;-79
2021/01/03 00:28:02;;;;;;;19.63;13.40;;;0.50;86.10;;;;;;5087989;28;20544;-79
2021/01/03 00:30:31;;;;;;;27.20;16.00;;;0.40;86.60;;;;;;5083592;28;20439;-79
2021/01/03 00:32:58;;;;;;;20.80;14.07;;;0.50;88.60;;;;;;5091966;28;20430;-79
2021/01/03 00:35:29;;;;;;;22.07;16.10;;;0.40;89.30;;;;;;5113227;28;20469;-79
2021/01/03 00:37:59;;;;;;;23.33;14.70;;;0.40;90.70;;;;;;5093852;28;20451;-82
2021/01/03 00:40:27;;;;;;;23.33;15.17;;;0.30;91.20;;;;;;5099120;28;20443;-81
2021/01/03 00:42:54;;;;;;;23.87;15.20;;;0.30;91.90;;;;;;5087319;28;20450;-80
2021/01/03 00:45:22;;;;;;;22.53;15.27;;;0.30;92.60;;;;;;5091868;28;20515;-81
2021/01/03 00:47:49;;;;;;;26.30;16.77;;;0.40;93.50;;;;;;5091588;28;20467;-82
2021/01/03 00:50:16;;;;;;;24.17;16.53;;;0.40;92.80;;;;;;5089778;28;20449;-81
2021/01/03 00:52:43;;;;;;;25.10;16.20;;;0.40;93.30;;;;;;5084904;28;20466;-80
2021/01/03 00:55:11;;;;;;;28.47;17.10;;;0.40;92.60;;;;;;5088515;28;20462;-81
2021/01/03 00:57:38;;;;;;;23.37;15.43;;;0.40;92.40;;;;;;5086267;28;20449;-81
2021/01/03 01:00:08;;;;;;;25.60;16.07;;;0.40;93.10;;;;;;5090814;28;20599;-80
2021/01/03 01:02:36;;;;;;;24.07;15.33;;;0.40;93.30;;;;;;5088008;28;20447;-80
2021/01/03 01:05:04;;;;;;;23.03;15.70;;;0.40;91.90;;;;;;5086304;28;21030;-81
2021/01/03 01:07:33;;;;;;;25.10;15.90;;;0.40;93.00;;;;;;5088224;28;20464;-80
2021/01/03 01:09:59;;;;;;;24.97;16.73;;;0.40;93.30;;;;;;5089204;28;20464;-83
2021/01/03 01:12:26;;;;;;;24.43;15.30;;;0.50;93.70;;;;;;5088376;28;20456;-81
2021/01/03 01:14:53;;;;;;;21.90;14.80;;;0.40;94.10;;;;;;5082821;28;20455;-80
2021/01/03 01:17:20;;;;;;;27.87;16.10;;;0.40;93.60;;;;;;5085905;28;20450;-81
2021/01/03 01:19:47;;;;;;;28.73;16.37;;;0.40;93.40;;;;;;5087007;28;20475;-81
2021/01/03 01:22:15;;;;;;;22.60;16.00;;;0.40;93.50;;;;;;5093290;28;20486;-82
2021/01/03 01:24:42;;;;;;;22.87;15.40;;;0.50;94.10;;;;;;5089905;28;20449;-80
2021/01/03 01:27:12;;;;;;;21.27;14.93;;;0.50;94.40;;;;;;5100629;28;20468;-81
2021/01/03 01:29:40;;;;;;;24.60;15.40;;;0.50;93.70;;;;;;5088522;28;20502;-82
2021/01/03 01:32:10;;;;;;;27.27;16.87;;;0.40;95.40;;;;;;5086071;28;20546;-81
2021/01/03 01:34:36;;;;;;;26.07;16.80;;;0.40;95.70;;;;;;5088129;28;20457;-81
2021/01/03 01:37:05;;;;;;;25.87;17.97;;;0.40;95.80;;;;;;5093988;28;20795;-81
2021/01/03 01:39:32;;;;;;;26.20;15.97;;;0.40;96.50;;;;;;5095441;28;20473;-82
2021/01/03 01:41:59;;;;;;;29.57;17.40;;;0.50;97.90;;;;;;5092287;28;20457;-81
2021/01/03 01:44:26;;;;;;;24.97;17.20;;;0.50;96.00;;;;;;5088424;28;20464;-80
2021/01/03 01:47:01;;;;;;;23.10;16.50;;;0.50;96.30;;;;;;5096502;28;20472;-81
2021/01/03 01:49:29;;;;;;;27.10;16.00;;;0.50;97.30;;;;;;5094371;28;20428;-81
2021/01/03 01:51:57;;;;;;;30.53;17.17;;;0.50;97.40;;;;;;5088927;28;20453;-80
2021/01/03 01:54:29;;;;;;;30.03;17.80;;;0.40;95.70;;;;;;5093407;28;20452;-81
2021/01/03 01:57:01;;;;;;;28.60;18.00;;;0.40;97.60;;;;;;5097008;28;20453;-81
2021/01/03 01:59:39;;;;;;;32.00;18.00;;;0.40;97.90;;;;;;5088371;28;20476;-81
2021/01/03 02:02:14;;;;;;;27.67;17.40;;;0.50;99.10;;;;;;5092120;28;20493;-81
2021/01/03 02:04:44;;;;;;;26.50;17.20;;;0.40;97.50;;;;;;5092470;28;20469;-82
2021/01/03 02:07:18;;;;;;;30.00;17.67;;;0.40;97.60;;;;;;5089987;28;20525;-81
2021/01/03 02:10:00;;;;;;;27.40;16.80;;;0.50;99.00;;;;;;5091065;28;20487;-82
2021/01/03 02:12:29;;;;;;;27.23;18.00;;;0.40;99.10;;;;;;5093330;28;20458;-81
2021/01/03 02:14:56;;;;;;;29.67;17.90;;;0.40;99.90;;;;;;5100747;28;20462;-81
2021/01/03 02:17:23;;;;;;;27.57;17.80;;;0.40;99.90;;;;;;5091749;28;20486;-81
2021/01/03 02:19:53;;;;;;;37.60;21.23;;;0.30;99.90;;;;;;5090326;28;20491;-82
2021/01/03 02:22:30;;;;;;;33.30;18.83;;;0.40;99.90;;;;;;5087976;28;20437;-82
2021/01/03 02:25:01;;;;;;;26.97;17.17;;;0.40;99.90;;;;;;5084396;28;20472;-81
2021/01/03 02:27:37;;;;;;;28.70;17.40;;;0.40;99.90;;;;;;5086314;28;20460;-82
2021/01/03 02:30:06;;;;;;;30.40;18.50;;;0.40;99.90;;;;;;5092192;28;20449;-80
2021/01/03 02:32:36;;;;;;;28.70;16.80;;;0.40;99.90;;;;;;5088375;28;20445;-83
2021/01/03 02:35:06;;;;;;;26.43;16.63;;;0.40;99.90;;;;;;5096673;28;20530;-81
2021/01/03 02:37:38;;;;;;;27.73;16.30;;;0.40;99.90;;;;;;5088886;28;20445;-80
2021/01/03 02:40:13;;;;;;;29.90;18.07;;;0.30;99.90;;;;;;5088903;28;20467;-82
2021/01/03 02:42:41;;;;;;;30.53;18.40;;;0.30;99.90;;;;;;5079061;28;20453;-77
2021/01/03 02:45:15;;;;;;;35.20;18.33;;;0.30;99.90;;;;;;5076863;28;20459;-78
2021/01/03 02:47:42;;;;;;;30.80;18.10;;;0.30;99.90;;;;;;5077153;28;20838;-77
2021/01/03 02:50:10;;;;;;;35.90;21.17;;;0.30;99.90;;;;;;5073202;28;20950;-79
2021/01/03 02:52:38;;;;;;;35.23;19.20;;;0.40;99.90;;;;;;5078344;28;20456;-79
2021/01/03 02:55:07;;;;;;;34.73;19.73;;;0.30;99.90;;;;;;5077012;28;20457;-77
2021/01/03 02:57:34;;;;;;;34.17;19.17;;;0.40;99.90;;;;;;5081012;28;20441;-78
2021/01/03 03:00:01;;;;;;;32.87;19.90;;;0.30;99.90;;;;;;5071567;28;20473;-78
2021/01/03 03:02:30;;;;;;;33.33;18.87;;;0.30;99.90;;;;;;5068529;28;20483;-78
2021/01/03 03:04:57;;;;;;;37.13;20.43;;;0.30;99.90;;;;;;5076111;28;20458;-79
2021/01/03 03:07:23;;;;;;;32.10;19.53;;;0.30;99.90;;;;;;5074853;28;20451;-78
2021/01/03 03:09:50;;;;;;;31.07;19.27;;;0.30;99.90;;;;;;5076244;28;20462;-78
2021/01/03 03:12:19;;;;;;;43.80;22.63;;;0.40;99.90;;;;;;5081607;28;20503;-79
2021/01/03 03:14:45;;;;;;;32.67;19.60;;;0.40;99.90;;;;;;5082332;28;20524;-79
2021/01/03 03:17:12;;;;;;;35.67;20.97;;;0.40;99.90;;;;;;5086600;28;20451;-77
2021/01/03 03:19:39;;;;;;;39.33;21.77;;;0.40;99.90;;;;;;5086156;28;20473;-79
2021/01/03 03:22:05;;;;;;;36.40;20.87;;;0.50;99.90;;;;;;5078381;28;20510;-77
2021/01/03 03:24:32;;;;;;;35.30;19.77;;;0.40;99.90;;;;;;5073629;28;20453;-77
2021/01/03 03:27:01;;;;;;;36.90;20.20;;;0.40;99.90;;;;;;5072057;28;20459;-78
2021/01/03 03:29:29;;;;;;;34.83;19.50;;;0.40;99.90;;;;;;5070986;28;20468;-79
2021/01/03 03:31:57;;;;;;;35.90;21.70;;;0.50;99.90;;;;;;5077047;28;20819;-79
2021/01/03 03:34:25;;;;;;;32.30;19.83;;;0.50;99.90;;;;;;5073723;28;20477;-77
2021/01/03 03:36:52;;;;;;;31.60;19.77;;;0.40;99.90;;;;;;5077564;28;20449;-79
2021/01/03 03:39:18;;;;;;;35.50;19.20;;;0.50;99.90;;;;;;5076020;28;20538;-77
2021/01/03 03:41:45;;;;;;;35.57;20.70;;;0.40;99.90;;;;;;5073556;28;20464;-78
2021/01/03 03:44:11;;;;;;;35.73;20.87;;;0.40;99.90;;;;;;5075374;28;20451;-78
2021/01/03 03:46:39;;;;;;;36.83;21.87;;;0.30;99.90;;;;;;5073708;28;20456;-78
2021/01/03 03:49:05;;;;;;;38.20;20.43;;;0.30;99.90;;;;;;5079029;28;20450;-79
2021/01/03 03:51:33;;;;;;;36.77;19.90;;;0.40;99.90;;;;;;5078418;28;20447;-77
2021/01/03 03:54:00;;;;;;;35.43;21.50;;;0.40;99.90;;;;;;5078343;28;20443;-79
2021/01/03 03:56:26;;;;;;;36.07;20.43;;;0.30;99.90;;;;;;5074030;28;20946;-78
2021/01/03 03:58:53;;;;;;;41.67;21.30;;;0.40;99.90;;;;;;5070599;28;20522;-78
2021/01/03 04:01:19;;;;;;;38.90;19.93;;;0.40;99.90;;;;;;5073999;28;20516;-78
2021/01/03 04:03:48;;;;;;;31.67;19.30;;;0.40;99.90;;;;;;5078183;28;20447;-78
2021/01/03 04:06:15;;;;;;;39.07;20.33;;;0.40;99.90;;;;;;5078396;28;20458;-79
2021/01/03 04:08:41;;;;;;;37.10;19.97;;;0.30;99.90;;;;;;5076066;28;20454;-78
2021/01/03 04:11:08;;;;;;;33.03;17.00;;;0.30;99.90;;;;;;5072353;28;20455;-78
2021/01/03 04:13:34;;;;;;;38.57;22.13;;;0.30;99.90;;;;;;5070821;28;20455;-78
2021/01/03 04:16:01;;;;;;;44.93;20.77;;;0.40;99.90;;;;;;5073929;28;20445;-77
2021/01/03 04:18:28;;;;;;;38.60;20.97;;;0.30;99.90;;;;;;5072248;28;20474;-78
2021/01/03 04:20:55;;;;;;;40.80;22.10;;;0.40;99.90;;;;;;5072750;28;20528;-79
2021/01/03 04:23:22;;;;;;;35.63;21.20;;;0.30;99.90;;;;;;5071997;28;20589;-79
2021/01/03 04:25:48;;;;;;;39.60;21.30;;;0.40;99.90;;;;;;5078002;28;20481;-77
2021/01/03 04:28:15;;;;;;;33.70;20.40;;;0.40;99.90;;;;;;5074389;28;20489;-78
2021/01/03 04:30:41;;;;;;;37.30;21.70;;;0.50;99.90;;;;;;5079671;28;21264;-78
2021/01/03 04:33:07;;;;;;;35.90;21.57;;;0.40;99.90;;;;;;5070427;28;20869;-78
2021/01/03 04:35:34;;;;;;;37.53;20.50;;;0.40;99.90;;;;;;5070794;28;20579;-79
2021/01/03 04:38:01;;;;;;;35.33;21.20;;;0.50;99.90;;;;;;5075658;28;20545;-78
2021/01/03 04:40:31;;;;;;;42.13;22.70;;;0.30;99.90;;;;;;5080542;28;20453;-77
2021/01/03 04:43:00;;;;;;;37.07;20.17;;;0.40;99.90;;;;;;5075426;28;20445;-78
2021/01/03 04:45:32;;;;;;;35.13;19.80;;;0.40;99.90;;;;;;5073778;28;20452;-78
2021/01/03 04:48:02;;;;;;;40.20;22.53;;;0.30;99.90;;;;;;5074118;28;20978;-78
2021/01/03 04:50:56;;;;;;;33.33;21.73;;;0.30;99.90;;;;;;5067817;28;20854;-78
2021/01/03 04:53:33;;;;;;;43.17;22.87;;;0.40;99.90;;;;;;5072144;28;20450;-78
2021/01/03 04:56:09;;;;;;;44.93;23.33;;;0.30;99.90;;;;;;5076148;28;20446;-78
2021/01/03 04:58:45;;;;;;;40.50;22.70;;;0.40;99.90;;;;;;5069899;28;20997;-77
2021/01/03 05:01:33;;;;;;;39.63;21.27;;;0.40;99.90;;;;;;5064161;28;20442;-78
2021/01/03 05:04:38;;;;;;;43.70;22.53;;;0.40;99.90;;;;;;5070091;28;20444;-78
2021/01/03 05:07:10;;;;;;;37.50;20.50;;;0.40;99.90;;;;;;5032871;28;20477;-78
2021/01/03 05:09:37;;;;;;;36.20;21.43;;;0.40;99.90;;;;;;5075754;28;20499;-77
2021/01/03 05:12:11;;;;;;;39.93;21.33;;;0.30;99.90;;;;;;5076445;28;20476;-78
2021/01/03 05:14:48;;;;;;;38.77;22.37;;;0.40;99.90;;;;;;5070484;28;20454;-77
2021/01/03 05:17:16;;;;;;;42.23;22.73;;;0.40;99.90;;;;;;5075096;28;20520;-78
2021/01/03 05:19:43;;;;;;;38.20;21.80;;;0.50;99.90;;;;;;5077460;28;20468;-78
2021/01/03 05:22:23;;;;;;;35.33;20.77;;;0.50;99.90;;;;;;5069845;28;20499;-78
2021/01/03 05:24:50;;;;;;;39.80;20.73;;;0.50;99.90;;;;;;5070073;28;20472;-79
2021/01/03 05:27:20;;;;;;;36.70;20.23;;;0.50;99.90;;;;;;5080588;28;20852;-79
2021/01/03 05:29:47;;;;;;;42.50;21.10;;;0.50;99.90;;;;;;5080909;28;20459;-78
2021/01/03 05:32:25;;;;;;;38.80;20.50;;;0.50;99.90;;;;;;5083961;28;20444;-78
2021/01/03 05:34:52;;;;;;;35.20;19.80;;;0.40;99.90;;;;;;5078987;28;21346;-78
2021/01/03 05:37:21;;;;;;;33.07;20.40;;;0.50;99.90;;;;;;5078757;28;20957;-79
2021/01/03 05:39:48;;;;;;;35.53;19.90;;;0.40;99.90;;;;;;5075115;28;20594;-76
2021/01/03 05:42:35;;;;;;;36.87;21.63;;;0.50;99.90;;;;;;5077563;28;20947;-77
2021/01/03 05:45:05;;;;;;;36.50;20.43;;;0.50;99.90;;;;;;5077321;28;20527;-79
2021/01/03 05:47:34;;;;;;;40.07;20.07;;;0.50;99.90;;;;;;5070786;28;20457;-78
2021/01/03 05:50:30;;;;;;;37.57;21.40;;;0.50;99.90;;;;;;5084288;28;20973;-81
2021/01/03 05:53:04;;;;;;;35.20;21.10;;;0.60;99.90;;;;;;5084005;28;20444;-79
2021/01/03 05:55:31;;;;;;;35.50;21.30;;;0.50;99.90;;;;;;5079999;28;20481;-78
2021/01/03 05:58:18;;;;;;;33.20;19.63;;;0.50;99.90;;;;;;5067618;28;20442;-79
2021/01/03 06:00:45;;;;;;;37.47;19.20;;;0.50;99.90;;;;;;5071313;28;21112;-78
2021/01/03 06:03:22;;;;;;;35.47;19.77;;;0.50;99.90;;;;;;5075219;28;20897;-79
2021/01/03 06:05:50;;;;;;;37.43;20.90;;;0.50;99.90;;;;;;5075702;28;20505;-79
2021/01/03 06:08:21;;;;;;;37.10;20.23;;;0.60;99.90;;;;;;5072494;28;20443;-83
2021/01/03 06:10:48;;;;;;;40.57;21.30;;;0.60;99.90;;;;;;5071867;28;20450;-80
2021/01/03 06:13:18;;;;;;;40.53;23.20;;;0.60;99.90;;;;;;5071497;28;20499;-79
2021/01/03 06:15:51;;;;;;;39.50;22.13;;;0.60;99.90;;;;;;5076511;28;20833;-79
2021/01/03 06:18:26;;;;;;;35.87;21.10;;;0.60;99.90;;;;;;5076487;28;20496;-79
2021/01/03 06:20:53;;;;;;;41.07;21.13;;;0.60;99.90;;;;;;5074059;28;20452;-79
2021/01/03 06:23:29;;;;;;;37.13;20.33;;;0.60;99.90;;;;;;5079997;28;20441;-84
2021/01/03 06:25:59;;;;;;;35.80;20.87;;;0.70;99.90;;;;;;5085120;28;20446;-83
2021/01/03 06:28:47;;;;;;;34.77;20.03;;;0.70;99.90;;;;;;5075275;28;20462;-78
2021/01/03 06:31:53;;;;;;;36.87;20.33;;;0.70;99.90;;;;;;5076165;28;20952;-79
2021/01/03 06:34:29;;;;;;;35.40;21.00;;;0.80;99.90;;;;;;5072785;28;20510;-79
2021/01/03 06:37:03;;;;;;;34.80;20.40;;;0.80;99.90;;;;;;5069061;28;20447;-80
2021/01/03 06:39:36;;;;;;;36.27;19.93;;;0.90;99.90;;;;;;5072157;28;20472;-78
2021/01/03 06:42:05;;;;;;;32.83;19.10;;;0.80;99.90;;;;;;5073595;28;20474;-78
2021/01/03 06:45:14;;;;;;;35.13;20.47;;;0.80;99.90;;;;;;5075138;28;20482;-78
2021/01/03 06:48:23;;;;;;;31.23;18.23;;;0.80;99.90;;;;;;5076958;28;20449;-80
2021/01/03 06:51:13;;;;;;;37.93;20.17;;;0.80;99.90;;;;;;5072561;28;21145;-79
2021/01/03 06:54:17;;;;;;;38.80;21.97;;;0.70;99.90;;;;;;5080442;28;20453;-80
2021/01/03 06:57:04;;;;;;;35.40;20.70;;;0.80;99.90;;;;;;5079240;28;20442;-79
2021/01/03 06:59:56;;;;;;;39.07;21.07;;;0.80;99.90;;;;;;5076980;28;20505;-78
2021/01/03 07:02:24;;;;;;;35.30;20.27;;;0.80;99.90;;;;;;5073597;28;20446;-78
2021/01/03 07:04:51;;;;;;;38.73;22.10;;;0.80;99.90;;;;;;5074367;28;20472;-77
2021/01/03 07:07:21;;;;;;;37.80;20.83;;;0.80;99.90;;;;;;5072704;28;20449;-79
2021/01/03 07:09:58;;;;;;;42.23;21.20;;;0.90;99.90;;;;;;5069790;28;20502;-78
2021/01/03 07:12:41;;;;;;;42.50;21.73;;;0.90;99.90;;;;;;5073557;28;20446;-79
2021/01/03 07:15:10;;;;;;;35.80;21.27;;;0.90;99.90;;;;;;5069004;28;20457;-79
2021/01/03 07:18:19;;;;;;;35.03;19.70;;;0.90;99.90;;;;;;5077086;28;20442;-78
2021/01/03 07:20:56;;;;;;;33.03;19.90;;;0.90;99.90;;;;;;5069665;28;20977;-79
2021/01/03 07:23:30;;;;;;;36.33;21.37;;;0.90;99.90;;;;;;5081673;28;20438;-79
2021/01/03 07:26:18;;;;;;;38.10;20.97;;;0.90;99.90;;;;;;5079257;28;20450;-78
2021/01/03 07:28:49;;;;;;;38.20;21.00;;;0.90;99.90;;;;;;5073834;28;20495;-79
2021/01/03 07:31:47;;;;;;;34.90;21.30;;;0.90;99.90;;;;;;5075534;28;20536;-79
2021/01/03 07:34:21;;;;;;;33.37;19.40;;;0.90;99.90;;;;;;5074071;28;20491;-79
2021/01/03 07:36:56;;;;;;;36.60;21.30;;;0.90;99.90;;;;;;5073150;28;20441;-78
2021/01/03 07:39:28;;;;;;;32.90;19.57;;;1.00;99.90;;;;;;5069879;28;20564;-78
2021/01/03 07:42:15;;;;;;;28.63;18.40;;;1.00;99.90;;;;;;5082798;28;20471;-79
2021/01/03 07:44:41;;;;;;;38.13;19.63;;;0.90;99.90;;;;;;5085876;28;20779;-78
2021/01/03 07:47:08;;;;;;;36.57;21.07;;;1.00;99.90;;;;;;5076293;28;20451;-78
2021/01/03 07:49:50;;;;;;;36.60;20.33;;;1.00;99.90;;;;;;5075487;28;20453;-80
2021/01/03 07:52:38;;;;;;;39.53;21.07;;;1.10;99.90;;;;;;5069187;28;20483;-78
2021/01/03 07:55:06;;;;;;;36.53;20.57;;;1.10;99.90;;;;;;5073034;28;20503;-78
2021/01/03 07:57:32;;;;;;;30.77;19.10;;;1.10;99.90;;;;;;5072208;28;20438;-78
2021/01/03 08:00:00;;;;;;;32.10;20.80;;;1.10;99.90;;;;;;5072922;28;20466;-80
2021/01/03 08:02:29;;;;;;;32.30;19.33;;;1.10;99.90;;;;;;5075384;28;20851;-79
2021/01/03 08:04:59;;;;;;;37.70;20.30;;;1.20;99.90;;;;;;5081096;28;20450;-79
2021/01/03 08:07:26;;;;;;;32.80;19.90;;;1.10;99.90;;;;;;5080036;28;20456;-80
2021/01/03 08:09:53;;;;;;;38.70;21.60;;;1.00;99.90;;;;;;5086854;28;20446;-80
2021/01/03 08:12:23;;;;;;;35.83;20.17;;;1.10;99.90;;;;;;5077824;28;20462;-79
2021/01/03 08:15:00;;;;;;;33.93;20.93;;;1.10;99.90;;;;;;5079182;28;20524;-79
2021/01/03 08:17:34;;;;;;;35.00;19.67;;;1.10;99.90;;;;;;5073427;28;20453;-77
2021/01/03 08:20:04;;;;;;;37.00;19.70;;;1.10;99.90;;;;;;5078799;28;20487;-81
2021/01/03 08:22:31;;;;;;;30.00;19.30;;;1.20;99.90;;;;;;5088487;28;20516;-79
2021/01/03 08:24:59;;;;;;;35.40;20.40;;;1.20;99.90;;;;;;5076043;28;20463;-78
2021/01/03 08:27:33;;;;;;;29.73;18.93;;;1.20;97.50;;;;;;5073832;28;20448;-78
2021/01/03 08:30:05;;;;;;;35.73;18.10;;;1.30;99.30;;;;;;5071959;28;20467;-79
2021/01/03 08:32:35;;;;;;;34.53;19.60;;;1.20;96.50;;;;;;5074305;28;20506;-78
2021/01/03 08:35:05;;;;;;;31.67;18.20;;;1.30;99.00;;;;;;5074972;28;20474;-83
2021/01/03 08:37:38;;;;;;;34.63;19.77;;;1.40;99.80;;;;;;5073882;28;20448;-79
2021/01/03 08:40:18;;;;;;;34.93;19.73;;;1.60;99.00;;;;;;5074034;28;20463;-78
2021/01/03 08:42:53;;;;;;;29.60;18.57;;;1.60;96.10;;;;;;5077194;28;20540;-80
2021/01/03 08:45:27;;;;;;;28.30;18.00;;;1.70;95.40;;;;;;5073105;28;20439;-78
2021/01/03 08:47:53;;;;;;;35.73;19.10;;;1.70;94.40;;;;;;5075095;28;20834;-83
2021/01/03 08:50:23;;;;;;;28.23;17.67;;;1.60;93.80;;;;;;5069066;28;20474;-78
2021/01/03 08:52:55;;;;;;;27.47;17.37;;;1.60;95.90;;;;;;5066700;28;20471;-79
2021/01/03 08:55:23;;;;;;;30.47;18.63;;;1.50;95.10;;;;;;5080759;28;20437;-78
2021/01/03 08:57:56;;;;;;;29.70;18.70;;;1.70;95.60;;;;;;5078105;28;20450;-80
2021/01/03 09:00:24;;;;;;;33.20;19.80;;;1.80;93.00;;;;;;5078719;28;20492;-78
2021/01/03 09:02:55;;;;;;;30.83;18.00;;;1.70;92.40;;;;;;5075543;28;20463;-78
2021/01/03 09:05:26;;;;;;;32.63;19.47;;;1.60;93.10;;;;;;5072608;28;20447;-78
2021/01/03 09:07:53;;;;;;;32.67;18.30;;;1.60;93.50;;;;;;5069208;28;21147;-81
2021/01/03 09:10:32;;;;;;;26.87;19.10;;;1.60;95.10;;;;;;5070432;28;20494;-79
2021/01/03 09:13:22;;;;;;;29.70;18.87;;;1.60;94.50;;;;;;5078401;28;20497;-81
2021/01/03 09:16:09;;;;;;;36.40;19.87;;;1.70;95.80;;;;;;5074461;28;20849;-79
2021/01/03 09:18:42;;;;;;;30.57;18.80;;;1.60;94.30;;;;;;5084546;28;20463;-79
2021/01/03 09:21:12;;;;;;;30.10;19.07;;;1.50;95.90;;;;;;5077725;28;20450;-78
2021/01/03 09:23:42;;;;;;;35.13;20.10;;;1.50;96.20;;;;;;5081210;28;20451;-79
2021/01/03 09:26:10;;;;;;;38.10;21.17;;;1.60;97.60;;;;;;5091247;28;20438;-80
2021/01/03 09:28:39;;;;;;;28.83;17.90;;;1.60;95.00;;;;;;5072138;28;21001;-77
2021/01/03 09:31:21;;;;;;;36.57;20.03;;;1.50;95.10;;;;;;5075511;28;20460;-80
2021/01/03 09:33:51;;;;;;;27.90;17.40;;;1.40;96.70;;;;;;5069344;28;20476;-80
2021/01/03 09:36:31;;;;;;;32.30;18.53;;;1.40;97.30;;;;;;5072517;28;20451;-80
2021/01/03 09:39:29;;;;;;;33.60;19.17;;;1.40;99.00;;;;;;5080432;28;20511;-79
2021/01/03 09:42:16;;;;;;;35.57;20.60;;;1.40;97.40;;;;;;5073929;28;20495;-78
2021/01/03 09:44:51;;;;;;;34.53;19.60;;;1.50;99.90;;;;;;5073194;28;20462;-78
2021/01/03 09:47:17;;;;;;;26.70;18.00;;;1.60;99.90;;;;;;5074052;28;20449;-77
2021/01/03 09:49:48;;;;;;;32.43;19.17;;;1.80;99.10;;;;;;5076263;28;20446;-78
2021/01/03 09:52:26;;;;;;;31.00;21.27;;;1.80;96.50;;;;;;5074155;28;21446;-78
2021/01/03 09:55:00;;;;;;;32.77;19.57;;;1.60;95.00;;;;;;5073893;28;20458;-78
2021/01/03 09:57:38;;;;;;;36.33;20.07;;;1.60;97.10;;;;;;5078387;28;20809;-78
2021/01/03 10:00:12;;;;;;;30.40;19.47;;;1.60;98.90;;;;;;5083855;28;20514;-79
2021/01/03 10:02:39;;;;;;;32.93;20.03;;;1.90;99.30;;;;;;5083067;28;20443;-79
2021/01/03 10:05:21;;;;;;;29.67;18.90;;;2.00;95.00;;;;;;5084355;28;20454;-78
2021/01/03 10:07:57;;;;;;;29.40;18.20;;;2.20;94.10;;;;;;5079070;28;20457;-80
2021/01/03 10:10:41;;;;;;;34.20;19.00;;;2.20;92.10;;;;;;5084086;28;20453;-82
2021/01/03 10:13:09;;;;;;;29.07;18.93;;;2.40;91.40;;;;;;5087158;28;20478;-79
2021/01/03 10:15:36;;;;;;;28.37;16.20;;;2.50;91.20;;;;;;5078479;28;20479;-79
2021/01/03 10:18:07;;;;;;;24.80;16.37;;;2.70;88.20;;;;;;5084682;28;20452;-80
2021/01/03 10:20:43;;;;;;;22.47;14.43;;;2.60;86.50;;;;;;5082687;28;20467;-82
2021/01/03 10:23:13;;;;;;;21.13;14.13;;;2.60;84.30;;;;;;5088390;28;20447;-80
2021/01/03 10:25:42;;;;;;;22.17;14.20;;;2.90;84.20;;;;;;5093541;28;20465;-79
2021/01/03 10:28:12;;;;;;;25.43;15.80;;;3.00;83.40;;;;;;5088518;28;20461;-79
2021/01/03 10:30:39;;;;;;;20.60;13.37;;;2.60;83.80;;;;;;5085746;28;20459;-80
2021/01/03 10:33:06;;;;;;;22.70;15.47;;;2.70;83.60;;;;;;5077250;28;20567;-80
2021/01/03 10:35:33;;;;;;;25.73;15.03;;;2.60;83.70;;;;;;5087468;28;20442;-80
2021/01/03 10:38:00;;;;;;;24.30;15.10;;;2.90;84.30;;;;;;5086655;28;20480;-79
2021/01/03 10:40:28;;;;;;;21.37;14.77;;;3.20;84.60;;;;;;5081314;28;21020;-78
2021/01/03 10:42:55;;;;;;;20.33;15.33;;;3.10;84.30;;;;;;5077453;28;20556;-79
2021/01/03 10:45:22;;;;;;;25.53;15.93;;;3.00;83.30;;;;;;5086987;28;20959;-79
2021/01/03 10:47:49;;;;;;;23.60;14.90;;;3.00;85.50;;;;;;5080594;28;20489;-79
2021/01/03 10:50:18;;;;;;;21.53;15.43;;;3.00;86.50;;;;;;5097304;28;20450;-79
2021/01/03 10:52:45;;;;;;;21.57;15.10;;;3.10;87.30;;;;;;5091746;28;20444;-79
2021/01/03 10:55:13;;;;;;;18.93;14.40;;;3.20;85.40;;;;;;5090163;28;21312;-79
2021/01/03 10:57:41;;;;;;;23.33;14.50;;;3.20;84.40;;;;;;5078846;28;20477;-78
2021/01/03 11:00:10;;;;;;;18.23;12.80;;;3.10;83.50;;;;;;5078400;28;20468;-78
2021/01/03 11:02:37;;;;;;;19.13;12.97;;;2.90;83.80;;;;;;5078441;28;20460;-79
2021/01/03 11:05:05;;;;;;;16.50;12.77;;;3.00;85.30;;;;;;5072890;28;20484;-79
2021/01/03 11:07:34;;;;;;;21.60;13.93;;;3.00;85.60;;;;;;5080789;28;20468;-79
2021/01/03 11:10:00;;;;;;;23.37;15.50;;;3.00;84.80;;;;;;5085872;28;20444;-78
2021/01/03 11:12:27;;;;;;;21.60;14.70;;;2.80;83.10;;;;;;5077189;28;20500;-78
2021/01/03 11:14:54;;;;;;;21.90;15.67;;;2.80;85.50;;;;;;5074180;28;20535;-79
2021/01/03 11:17:20;;;;;;;22.37;16.23;;;2.90;87.30;;;;;;5077446;28;20439;-79
2021/01/03 11:19:47;;;;;;;21.47;14.30;;;2.90;86.40;;;;;;5074853;28;20471;-79
2021/01/03 11:22:16;;;;;;;21.20;13.80;;;2.90;84.10;;;;;;5077457;28;20459;-78
2021/01/03 11:24:43;;;;;;;20.43;14.63;;;3.10;85.10;;;;;;5071443;28;20471;-78
2021/01/03 11:27:12;;;;;;;23.63;13.90;;;2.80;83.50;;;;;;5075740;28;20487;-77
2021/01/03 11:29:39;;;;;;;24.63;14.37;;;3.20;83.80;;;;;;5077538;28;20456;-78
2021/01/03 11:32:09;;;;;;;19.57;14.10;;;3.30;82.60;;;;;;5077029;28;20460;-79
2021/01/03 11:34:35;;;;;;;16.60;12.90;;;3.30;81.60;;;;;;5081048;28;20521;-78
2021/01/03 11:37:04;;;;;;;18.00;13.93;;;3.30;81.10;;;;;;5088175;28;20451;-80
2021/01/03 11:39:33;;;;;;;24.00;15.80;;;3.20;81.00;;;;;;5083223;28;20483;-78
2021/01/03 11:42:04;;;;;;;19.40;14.50;;;3.10;81.30;;;;;;5085595;28;20470;-80
2021/01/03 11:44:31;;;;;;;20.07;14.07;;;3.10;81.70;;;;;;5077223;28;20459;-79
2021/01/03 11:46:59;;;;;;;18.73;13.47;;;3.10;81.70;;;;;;5079796;28;20450;-80
2021/01/03 11:49:27;;;;;;;19.70;13.70;;;3.10;81.90;;;;;;5082832;28;20523;-79
2021/01/03 11:51:54;;;;;;;20.33;14.70;;;3.20;80.80;;;;;;5084913;28;20455;-79
2021/01/03 11:54:20;;;;;;;24.53;14.43;;;3.10;81.10;;;;;;5093371;28;20431;-80
2021/01/03 11:56:47;;;;;;;19.30;14.00;;;3.20;82.20;;;;;;5089497;28;20447;-80
2021/01/03 11:59:16;;;;;;;18.50;14.00;;;3.20;80.80;;;;;;5093972;28;20520;-79
2021/01/03 12:01:42;;;;;;;19.43;12.80;;;3.20;80.50;;;;;;5090103;28;20519;-79
2021/01/03 12:04:09;;;;;;;19.23;13.67;;;3.10;79.60;;;;;;5084907;28;20564;-79
2021/01/03 12:06:36;;;;;;;16.20;11.97;;;3.10;79.70;;;;;;5078713;28;20706;-80
2021/01/03 12:09:04;;;;;;;17.77;11.90;;;3.10;80.10;;;;;;5091033;28;20446;-79
2021/01/03 12:11:31;;;;;;;19.80;13.10;;;3.10;79.40;;;;;;5101188;28;20454;-79
2021/01/03 12:14:02;;;;;;;18.60;13.20;;;2.90;79.70;;;;;;5074019;28;20447;-79
2021/01/03 12:16:31;;;;;;;23.17;15.73;;;2.90;81.10;;;;;;5076692;28;20954;-81
2021/01/03 12:18:58;;;;;;;25.27;15.20;;;2.90;80.80;;;;;;5077577;28;20762;-78
2021/01/03 12:21:26;;;;;;;23.43;15.97;;;2.90;80.60;;;;;;5073632;28;20482;-79
2021/01/03 12:23:55;;;;;;;22.20;14.13;;;2.80;81.10;;;;;;5076595;28;20444;-80
2021/01/03 12:26:24;;;;;;;26.50;15.43;;;2.80;82.00;;;;;;5065726;28;20460;-78
2021/01/03 12:28:50;;;;;;;21.37;15.40;;;2.80;81.80;;;;;;5085257;28;20559;-78
2021/01/03 12:31:17;;;;;;;26.33;16.07;;;2.80;83.90;;;;;;5088415;28;20454;-78
2021/01/03 12:33:44;;;;;;;21.90;15.87;;;3.00;83.30;;;;;;5086163;28;20532;-79
2021/01/03 12:36:11;;;;;;;24.20;15.37;;;2.90;82.90;;;;;;5083402;28;20467;-79
2021/01/03 12:38:37;;;;;;;22.30;15.80;;;2.90;81.70;;;;;;5084721;28;20444;-79
2021/01/03 12:41:05;;;;;;;23.00;14.83;;;2.90;82.20;;;;;;5072684;28;20473;-78
2021/01/03 12:43:31;;;;;;;26.77;19.33;;;2.90;82.30;;;;;;5085163;28;21026;-79
2021/01/03 12:45:59;;;;;;;25.67;17.47;;;2.80;82.10;;;;;;5079254;28;20486;-80
2021/01/03 12:48:26;;;;;;;25.93;17.53;;;2.80;82.50;;;;;;5079163;28;20468;-81
2021/01/03 12:50:53;;;;;;;24.57;16.70;;;2.90;82.50;;;;;;5077812;28;20446;-78
2021/01/03 12:53:20;;;;;;;27.20;15.37;;;2.90;82.50;;;;;;5082446;28;20462;-80
2021/01/03 12:55:48;;;;;;;23.83;16.40;;;3.00;82.10;;;;;;5076418;28;20455;-81